Time;durP1;ratioP1;P1;durP2;ratioP2;P2;SDS_P1;SDS_P2;PMS_P1;PMS_P2;Temp;Humidity;BMP_temperature;BMP_pressure;BME280_temperature;BME280_humidity;BME280_pressure;Samples;Min_cycle;Max_cycle;Signal;HPM_P1;HPM_P2
2021/08/02 00:00:16;;;;;;;7.47;4.75;;;;;;;14.43;93.07;100820.28;6242451;23;20008;-89
2021/08/02 00:03:20;;;;;;;6.43;4.43;;;;;;;14.33;93.92;100822.16;6242657;23;20015;-88
2021/08/02 00:05:50;;;;;;;7.28;4.45;;;;;;;14.32;93.87;100820.53;6242412;22;20067;-88
2021/08/02 00:08:22;;;;;;;6.13;4.70;;;;;;;14.28;93.82;100825.66;6244820;23;20000;-88
2021/08/02 00:10:50;;;;;;;5.53;4.65;;;;;;;14.20;94.72;100818.94;6242705;23;20008;-88
2021/08/02 00:13:25;;;;;;;8.18;4.97;;;;;;;14.24;93.97;100826.47;6242663;23;20071;-88
2021/08/02 00:15:51;;;;;;;8.35;4.55;;;;;;;14.08;95.26;100815.69;6243462;22;20139;-88
2021/08/02 00:18:19;;;;;;;7.95;5.13;;;;;;;14.01;95.38;100812.47;6243497;23;20048;-88
2021/08/02 00:20:48;;;;;;;7.22;5.35;;;;;;;13.92;96.16;100824.84;6243291;23;20004;-88
2021/08/02 00:23:13;;;;;;;8.48;5.75;;;;;;;13.97;95.58;100822.16;6244980;23;20023;-89
2021/08/02 00:25:39;;;;;;;10.43;5.50;;;;;;;13.93;95.79;100815.69;6243441;22;20012;-87
2021/08/02 00:28:05;;;;;;;10.25;5.05;;;;;;;13.91;96.13;100823.22;6243791;23;20036;-87
2021/08/02 00:30:33;;;;;;;7.35;5.25;;;;;;;13.96;95.68;100822.41;6242967;23;20702;-88
2021/08/02 00:33:02;;;;;;;9.20;5.80;;;;;;;13.88;96.83;100823.78;6243453;23;20008;-87
2021/08/02 00:35:37;;;;;;;10.38;5.97;;;;;;;13.85;96.88;100830.50;6243343;22;20018;-88
2021/08/02 00:38:09;;;;;;;10.10;6.45;;;;;;;13.78;97.67;100826.44;6243334;23;20436;-88
2021/08/02 00:40:38;;;;;;;9.45;6.18;;;;;;;13.76;97.96;100820.53;6241828;23;20031;-88
2021/08/02 00:43:30;;;;;;;9.48;6.40;;;;;;;13.76;98.10;100829.41;6242733;23;20004;-87
2021/08/02 00:45:58;;;;;;;8.00;6.00;;;;;;;13.74;98.57;100834.25;6243442;22;19996;-88
2021/08/02 00:48:36;;;;;;;9.93;6.35;;;;;;;13.72;98.40;100828.31;6243134;23;20000;-88
2021/08/02 00:51:05;;;;;;;10.02;6.45;;;;;;;13.72;98.21;100838.28;6243908;23;20000;-88
2021/08/02 00:53:32;;;;;;;14.05;6.97;;;;;;;13.74;98.19;100831.56;6242782;23;20000;-88
2021/08/02 00:56:01;;;;;;;10.10;6.45;;;;;;;13.75;97.94;100833.19;6243014;22;20008;-89
2021/08/02 00:58:36;;;;;;;10.35;6.90;;;;;;;13.68;98.07;100842.59;6242756;23;20032;-88
2021/08/02 01:01:04;;;;;;;12.98;7.05;;;;;;;13.77;97.65;100849.06;6243063;23;20016;-88
2021/08/02 01:03:32;;;;;;;9.10;6.68;;;;;;;13.70;97.78;100851.22;6243308;23;20008;-89
2021/08/02 01:05:58;;;;;;;10.63;7.15;;;;;;;13.73;97.71;100851.47;6242842;22;20382;-88
2021/08/02 01:08:30;;;;;;;12.75;7.25;;;;;;;13.67;98.54;100849.88;6242915;23;20036;-88
2021/08/02 01:11:01;;;;;;;11.55;7.90;;;;;;;13.77;98.01;100847.19;6242754;23;20019;-88
2021/08/02 01:13:34;;;;;;;10.45;6.53;;;;;;;13.76;98.36;100855.53;6242921;23;20014;-88
2021/08/02 01:16:02;;;;;;;10.63;7.15;;;;;;;13.86;97.81;100860.94;6242527;22;20008;-88
2021/08/02 01:18:34;;;;;;;12.68;7.40;;;;;;;13.90;98.00;100859.31;6236176;23;19996;-88
2021/08/02 01:21:08;;;;;;;10.18;7.07;;;;;;;13.88;98.19;100859.59;6243208;23;20020;-88
2021/08/02 01:23:38;;;;;;;13.10;7.13;;;;;;;13.99;98.06;100870.38;6242428;23;20011;-88
2021/08/02 01:26:03;;;;;;;12.45;7.32;;;;;;;14.01;98.02;100869.06;6219936;23;20026;-89
2021/08/02 01:28:32;;;;;;;11.43;6.80;;;;;;;14.03;97.83;100872.28;6242602;23;20004;-88
2021/08/02 01:31:02;;;;;;;8.75;6.30;;;;;;;14.04;97.65;100875.78;6243262;23;20075;-88
2021/08/02 01:33:31;;;;;;;9.27;6.85;;;;;;;14.09;97.52;100867.69;6235573;23;20004;-88
2021/08/02 01:36:04;;;;;;;9.00;6.80;;;;;;;14.02;97.72;100867.97;6242948;22;20012;-88
2021/08/02 01:38:31;;;;;;;9.85;6.93;;;;;;;14.14;97.51;100868.50;6242554;23;20030;-88
2021/08/02 01:40:57;;;;;;;11.95;7.13;;;;;;;14.10;97.24;100872.00;6242894;23;20008;-88
2021/08/02 01:43:28;;;;;;;8.65;6.63;;;;;;;14.10;96.98;100870.13;6243221;23;20003;-87
2021/08/02 01:46:06;;;;;;;9.07;6.70;;;;;;;14.14;96.55;100879.28;6242284;22;20004;-88
2021/08/02 01:49:17;;;;;;;9.90;6.90;;;;;;;14.11;96.99;100874.44;6242857;23;20444;-88
2021/08/02 01:51:49;;;;;;;11.85;6.75;;;;;;;14.32;95.41;100875.25;6180421;23;20091;-87
2021/08/02 01:54:45;;;;;;;10.88;7.95;;;;;;;14.26;95.99;100872.84;6232705;23;20008;-88
2021/08/02 01:57:41;;;;;;;10.55;7.32;;;;;;;14.25;96.41;100863.13;6243083;23;20062;-88
2021/08/02 02:00:11;;;;;;;10.45;7.22;;;;;;;14.25;96.16;100863.13;6242562;23;20310;-88
2021/08/02 02:02:59;;;;;;;12.25;7.82;;;;;;;14.23;96.49;100862.59;6241449;23;20684;-87
2021/08/02 02:05:31;;;;;;;11.70;7.15;;;;;;;14.31;96.18;100867.44;6242769;22;20057;-88
2021/08/02 02:08:09;;;;;;;9.88;7.05;;;;;;;14.27;95.98;100863.66;6242532;23;20011;-88
2021/08/02 02:10:38;;;;;;;13.27;7.57;;;;;;;14.29;96.38;100870.41;6242373;23;20000;-88
2021/08/02 02:13:14;;;;;;;12.55;7.95;;;;;;;14.38;95.35;100866.09;6241850;23;20543;-87
2021/08/02 02:15:44;;;;;;;10.95;7.03;;;;;;;14.41;95.54;100862.88;6241489;22;20000;-88
2021/08/02 02:18:14;;;;;;;11.55;7.05;;;;;;;14.43;95.23;100860.72;6242498;23;20012;-88
2021/08/02 02:20:43;;;;;;;9.02;5.90;;;;;;;14.50;94.57;100868.53;6240626;23;20015;-88
2021/08/02 02:23:13;;;;;;;9.98;6.70;;;;;;;14.47;94.92;100869.06;6241523;23;20008;-88
2021/08/02 02:25:41;;;;;;;9.85;5.93;;;;;;;14.53;94.36;100873.38;6242729;22;20007;-88
2021/08/02 02:28:07;;;;;;;9.50;6.10;;;;;;;14.56;94.02;100880.94;6242351;23;20087;-88
2021/08/02 02:30:53;;;;;;;8.23;6.03;;;;;;;14.60;93.44;100879.31;6242576;23;20374;-88
2021/08/02 02:33:22;;;;;;;8.20;6.43;;;;;;;14.60;93.35;100882.03;6242565;23;20436;-88
2021/08/02 02:35:50;;;;;;;8.15;6.10;;;;;;;14.55;94.03;100878.53;6242239;22;20008;-88
2021/08/02 02:38:17;;;;;;;6.97;5.30;;;;;;;14.56;93.48;100885.53;6242186;23;20004;-88
2021/08/02 02:40:44;;;;;;;6.35;5.05;;;;;;;14.47;93.77;100879.88;6242288;23;20016;-88
2021/08/02 02:43:18;;;;;;;9.35;4.93;;;;;;;14.58;93.36;100886.88;6242525;23;20012;-87
2021/08/02 02:45:45;;;;;;;6.80;4.88;;;;;;;14.62;93.10;100887.94;6239806;22;20012;-52
2021/08/02 02:48:12;;;;;;;7.75;5.18;;;;;;;14.49;93.74;100889.28;6236695;23;20004;-49
2021/08/02 02:50:40;;;;;;;9.88;4.57;;;;;;;14.65;92.69;100884.69;6235233;23;20004;-49
2021/08/02 02:53:06;;;;;;;6.50;4.70;;;;;;;14.58;92.49;100894.16;6235482;23;20390;-50
2021/08/02 02:55:34;;;;;;;6.70;4.45;;;;;;;14.62;92.15;100890.63;6236681;23;20347;-50
2021/08/02 02:58:01;;;;;;;8.25;4.60;;;;;;;14.62;91.82;100896.03;6238170;23;20015;-51
2021/08/02 03:00:27;;;;;;;7.32;3.90;;;;;;;14.62;91.11;100900.63;6238174;23;20083;-49
2021/08/02 03:02:55;;;;;;;6.65;3.58;;;;;;;14.63;90.89;100891.44;6235446;23;20430;-50
2021/08/02 03:05:22;;;;;;;6.55;3.88;;;;;;;14.54;90.74;100910.03;6239304;23;20062;-49
2021/08/02 03:07:51;;;;;;;8.77;4.13;;;;;;;14.60;90.59;100908.97;6237990;23;20008;-53
2021/08/02 03:10:21;;;;;;;4.70;3.63;;;;;;;14.57;90.44;100903.31;6239036;23;20065;-50
2021/08/02 03:12:48;;;;;;;8.05;4.20;;;;;;;14.50;90.84;100914.38;6238144;23;20008;-50
2021/08/02 03:15:14;;;;;;;5.28;3.45;;;;;;;14.52;89.99;100909.50;6239138;23;20448;-53
2021/08/02 03:17:40;;;;;;;7.93;3.78;;;;;;;14.49;89.87;100910.06;6238325;23;20011;-50
2021/08/02 03:20:06;;;;;;;5.38;2.95;;;;;;;14.57;88.62;100920.31;6236227;23;20000;-49
2021/08/02 03:22:38;;;;;;;9.05;3.65;;;;;;;14.62;88.02;100906.00;6238834;23;20018;-50
2021/08/02 03:25:17;;;;;;;4.10;3.10;;;;;;;14.55;87.45;100914.38;6238110;23;20015;-51
2021/08/02 03:28:19;;;;;;;5.82;2.80;;;;;;;14.59;87.09;100918.16;6239247;23;20004;-52
2021/08/02 03:30:48;;;;;;;5.35;3.38;;;;;;;14.53;87.44;100916.50;6205313;22;20154;-50
2021/08/02 03:33:17;;;;;;;5.13;3.15;;;;;;;14.55;87.35;100922.47;6240311;23;20043;-50
2021/08/02 03:35:47;;;;;;;4.93;2.75;;;;;;;14.54;86.40;100926.22;6236290;23;20006;-52
2021/08/02 03:38:15;;;;;;;5.15;2.97;;;;;;;14.53;86.26;100921.91;6239329;23;20016;-49
2021/08/02 03:40:44;;;;;;;3.53;2.50;;;;;;;14.66;85.79;100918.69;6238410;23;20058;-52
2021/08/02 03:43:11;;;;;;;3.22;2.80;;;;;;;14.66;85.69;100917.88;6239425;23;20060;-50
2021/08/02 03:45:38;;;;;;;4.75;2.60;;;;;;;14.62;85.97;100923.00;6248985;22;20378;-50
2021/08/02 03:48:04;;;;;;;4.22;2.78;;;;;;;14.57;86.04;100930.28;6268878;22;20035;-49
2021/08/02 03:50:30;;;;;;;6.03;3.10;;;;;;;14.59;86.28;100931.63;6269191;22;20023;-51
2021/08/02 03:52:57;;;;;;;3.83;2.83;;;;;;;14.61;85.61;100931.38;6268033;22;20014;-50
2021/08/02 03:55:25;;;;;;;6.65;2.60;;;;;;;14.60;85.20;100940.53;6269105;22;20350;-50
2021/08/02 03:57:51;;;;;;;7.32;2.42;;;;;;;14.59;85.04;100941.63;6269807;22;20363;-52
2021/08/02 04:00:21;;;;;;;5.32;2.30;;;;;;;14.58;84.06;100940.81;6268739;22;19999;-50
2021/08/02 04:02:47;;;;;;;5.32;2.38;;;;;;;14.59;84.55;100942.41;6269753;22;20004;-49
2021/08/02 04:05:13;;;;;;;5.80;2.50;;;;;;;14.63;84.76;100948.88;6268553;22;20440;-49
2021/08/02 04:07:40;;;;;;;4.95;2.65;;;;;;;14.66;84.91;100953.72;6269473;22;20014;-49
2021/08/02 04:10:07;;;;;;;3.55;2.30;;;;;;;14.69;84.96;100953.19;6268417;22;20432;-50
2021/08/02 04:12:32;;;;;;;6.00;2.15;;;;;;;14.70;85.06;100954.81;6269179;22;20343;-50
2021/08/02 04:14:58;;;;;;;3.55;2.40;;;;;;;14.72;85.31;100957.22;6269170;22;20004;-49
2021/08/02 04:17:23;;;;;;;4.97;2.67;;;;;;;14.67;85.83;100957.25;6268311;22;20024;-50
2021/08/02 04:19:49;;;;;;;6.70;2.25;;;;;;;14.82;84.92;100954.53;6269752;22;20008;-50
2021/08/02 04:22:14;;;;;;;4.43;2.13;;;;;;;14.82;84.84;100959.94;6267735;22;20015;-49
2021/08/02 04:24:40;;;;;;;4.40;2.75;;;;;;;14.80;85.30;100962.91;6269736;22;20038;-49
2021/08/02 04:27:05;;;;;;;5.07;2.45;;;;;;;14.85;85.16;100967.47;6267552;22;20010;-50
2021/08/02 04:29:31;;;;;;;4.60;2.63;;;;;;;14.70;85.13;100971.00;6269693;22;20030;-49
2021/08/02 04:31:57;;;;;;;6.28;2.25;;;;;;;14.81;85.19;100977.19;6268503;22;20065;-49
2021/08/02 04:34:22;;;;;;;6.38;2.85;;;;;;;14.73;85.93;100980.44;6268043;22;19999;-52
2021/08/02 04:36:48;;;;;;;4.05;2.65;;;;;;;14.66;86.54;100980.69;6268952;22;20374;-49
2021/08/02 04:39:14;;;;;;;5.15;3.00;;;;;;;14.67;86.16;100978.81;6268044;22;20010;-50
2021/08/02 04:41:39;;;;;;;8.57;3.00;;;;;;;14.71;85.64;100991.47;6268968;22;20075;-50
2021/08/02 04:44:05;;;;;;;6.38;2.58;;;;;;;14.59;85.96;100993.66;6267602;22;20008;-51
2021/08/02 04:46:31;;;;;;;5.70;3.17;;;;;;;14.64;85.94;100980.16;6269426;22;20003;-50
2021/08/02 04:48:57;;;;;;;4.18;2.92;;;;;;;14.72;85.00;100990.44;6268949;22;20000;-49
2021/08/02 04:51:22;;;;;;;6.50;2.90;;;;;;;14.64;85.29;100998.22;6267562;22;20007;-49
2021/08/02 04:53:48;;;;;;;5.90;2.50;;;;;;;14.64;84.58;100993.66;6267786;22;20004;-51
2021/08/02 04:56:13;;;;;;;3.35;2.15;;;;;;;14.79;83.23;101001.75;6241547;22;20003;-50
2021/08/02 04:58:39;;;;;;;5.05;2.58;;;;;;;14.91;82.18;101001.50;6268093;22;20007;-51
2021/08/02 05:01:04;;;;;;;4.25;2.20;;;;;;;15.03;81.95;101003.88;6267522;22;20003;-49
2021/08/02 05:03:30;;;;;;;3.75;2.10;;;;;;;15.13;81.90;101013.88;6268767;22;20003;-52
2021/08/02 05:05:55;;;;;;;5.70;2.60;;;;;;;15.22;81.67;101013.03;6268415;22;20087;-51
2021/08/02 05:08:22;;;;;;;5.28;2.40;;;;;;;15.47;80.09;101006.00;6269308;22;20008;-51
2021/08/02 05:10:48;;;;;;;4.70;2.60;;;;;;;15.37;79.66;101010.31;6266912;22;20387;-52
2021/08/02 05:13:13;;;;;;;8.57;2.35;;;;;;;15.50;78.43;101014.34;6268481;22;20061;-50
2021/08/02 05:15:39;;;;;;;7.82;2.33;;;;;;;15.72;77.76;101005.94;6266734;22;20011;-50
2021/08/02 05:18:04;;;;;;;4.85;2.28;;;;;;;15.60;77.56;101013.53;6268792;22;20424;-52
2021/08/02 05:20:30;;;;;;;3.95;2.20;;;;;;;15.55;77.09;101002.72;6269010;22;20026;-49
2021/08/02 05:22:55;;;;;;;7.43;2.40;;;;;;;15.77;76.76;101000.50;6266988;22;20003;-49
2021/08/02 05:25:21;;;;;;;4.18;2.35;;;;;;;15.90;76.84;101012.63;6269564;22;20423;-50
2021/08/02 05:27:56;;;;;;;4.18;1.92;;;;;;;15.96;74.79;101000.69;6267841;22;20003;-50
2021/08/02 05:30:21;;;;;;;3.15;2.22;;;;;;;15.92;74.92;101005.84;6269128;22;20000;-50
2021/08/02 05:32:47;;;;;;;3.42;2.25;;;;;;;16.06;75.12;101002.53;6267291;22;20045;-52
2021/08/02 05:35:14;;;;;;;6.30;2.05;;;;;;;16.11;74.13;101007.91;6269162;22;20033;-50
2021/08/02 05:37:40;;;;;;;6.53;2.38;;;;;;;16.17;73.18;101002.22;6269764;22;20061;-50
2021/08/02 05:40:06;;;;;;;4.75;1.70;;;;;;;16.25;73.77;101003.53;6267091;22;20122;-49
2021/08/02 05:42:32;;;;;;;3.95;2.30;;;;;;;16.37;73.53;101005.88;6269008;22;20455;-52
2021/08/02 05:44:58;;;;;;;7.40;2.47;;;;;;;16.27;73.43;101007.56;6267281;22;19999;-49
2021/08/02 05:47:23;;;;;;;5.03;2.25;;;;;;;16.41;73.53;101010.44;6269200;22;20000;-53
2021/08/02 05:49:49;;;;;;;5.38;1.95;;;;;;;16.53;72.31;101015.53;6266849;22;20011;-50
2021/08/02 05:52:14;;;;;;;4.43;1.80;;;;;;;16.39;71.44;101009.94;6267619;22;20015;-50
2021/08/02 05:54:40;;;;;;;8.35;2.13;;;;;;;16.19;71.66;101018.16;6268287;22;20011;-52
2021/08/02 05:57:06;;;;;;;6.15;1.83;;;;;;;16.28;71.74;101019.19;6265996;22;20010;-50
2021/08/02 05:59:31;;;;;;;4.55;1.42;;;;;;;16.51;69.97;101017.69;6266926;22;20081;-49
2021/08/02 06:02:00;;;;;;;1.70;1.60;;;;;;;16.46;70.73;101025.84;6265604;22;20032;-50
2021/08/02 06:04:26;;;;;;;9.40;1.70;;;;;;;16.52;69.78;101022.03;6268259;22;20006;-50
2021/08/02 06:06:54;;;;;;;6.45;1.80;;;;;;;16.67;68.47;101026.53;6267821;22;20255;-53
2021/08/02 06:09:21;;;;;;;6.07;1.60;;;;;;;16.46;69.25;101032.03;6269245;22;19996;-50
2021/08/02 06:11:47;;;;;;;3.42;1.88;;;;;;;16.51;69.60;101033.91;6266943;22;20524;-50
2021/08/02 06:14:12;;;;;;;3.83;1.50;;;;;;;16.44;69.45;101039.63;6268628;22;20011;-49
2021/08/02 06:16:38;;;;;;;6.68;1.95;;;;;;;16.55;69.15;101043.09;6267788;22;20014;-51
2021/08/02 06:19:04;;;;;;;4.35;2.22;;;;;;;16.09;71.25;101045.22;6267997;22;20383;-50
2021/08/02 06:21:29;;;;;;;5.03;1.67;;;;;;;16.56;69.20;101042.00;6267422;22;20074;-50
2021/08/02 06:23:55;;;;;;;3.55;1.83;;;;;;;16.73;68.53;101037.03;6267876;22;20470;-52
2021/08/02 06:26:21;;;;;;;3.45;1.80;;;;;;;17.09;67.68;101034.88;6269204;22;20050;-50
2021/08/02 06:28:47;;;;;;;4.28;1.88;;;;;;;17.12;66.98;101030.78;6267299;22;20094;-49
2021/08/02 06:31:12;;;;;;;3.72;1.38;;;;;;;17.16;66.41;101035.31;6268232;22;20007;-51
2021/08/02 06:33:38;;;;;;;2.92;1.65;;;;;;;16.94;66.58;101037.69;6270262;22;19999;-50
2021/08/02 06:36:03;;;;;;;8.52;1.75;;;;;;;16.93;67.62;101030.66;6269951;22;20014;-53
2021/08/02 06:38:32;;;;;;;4.20;1.77;;;;;;;17.00;66.69;101041.16;6270536;22;20122;-50
2021/08/02 06:40:58;;;;;;;7.82;2.00;;;;;;;17.28;65.68;101029.53;6269785;22;20102;-52
2021/08/02 06:43:24;;;;;;;7.18;2.05;;;;;;;16.84;66.26;101041.28;6271371;22;20435;-49
2021/08/02 06:45:49;;;;;;;5.28;1.92;;;;;;;16.72;66.84;101048.16;6268971;22;20015;-50
2021/08/02 06:48:15;;;;;;;5.07;1.50;;;;;;;17.20;65.72;101033.66;6270904;22;20370;-53
2021/08/02 06:50:40;;;;;;;4.97;1.90;;;;;;;17.01;64.81;101034.66;6270087;22;20038;-50
2021/08/02 06:53:06;;;;;;;4.07;1.90;;;;;;;17.09;65.06;101045.69;6268999;22;20079;-52
2021/08/02 06:55:31;;;;;;;4.07;1.70;;;;;;;17.15;64.15;101028.31;6271416;22;20424;-49
2021/08/02 06:57:57;;;;;;;8.38;2.15;;;;;;;17.26;64.72;101034.44;6268267;22;20466;-49
2021/08/02 07:00:23;;;;;;;4.30;1.70;;;;;;;17.42;64.53;101038.63;6270294;22;20458;-52
2021/08/02 07:02:49;;;;;;;2.97;1.40;;;;;;;17.07;64.01;101037.06;6267561;22;20085;-50
2021/08/02 07:05:14;;;;;;;5.97;1.92;;;;;;;17.37;63.42;101030.50;6269852;22;20004;-50
2021/08/02 07:07:40;;;;;;;6.75;1.95;;;;;;;17.65;62.11;101036.19;6271136;22;20004;-50
2021/08/02 07:10:06;;;;;;;4.95;1.90;;;;;;;17.78;61.01;101044.47;6269410;22;20003;-51
2021/08/02 07:12:32;;;;;;;5.38;1.70;;;;;;;17.59;61.83;101042.75;6270857;22;20034;-50
2021/08/02 07:14:58;;;;;;;13.75;1.88;;;;;;;17.67;61.49;101042.94;6268264;22;20416;-52
2021/08/02 07:17:23;;;;;;;6.43;2.10;;;;;;;17.62;62.73;101053.84;6270728;22;20258;-49
2021/08/02 07:19:49;;;;;;;4.15;1.52;;;;;;;17.66;63.54;101045.94;6269680;22;20004;-51
2021/08/02 07:22:14;;;;;;;4.30;2.22;;;;;;;17.80;61.79;101044.19;6268466;22;20018;-49
2021/08/02 07:24:40;;;;;;;6.88;2.00;;;;;;;18.26;60.84;101047.13;6270484;22;20004;-51
2021/08/02 07:27:06;;;;;;;4.90;1.52;;;;;;;18.40;60.53;101045.31;6268551;22;20094;-49
2021/08/02 07:29:31;;;;;;;5.22;2.10;;;;;;;18.16;61.39;101047.28;6270312;22;20057;-50
2021/08/02 07:31:57;;;;;;;3.92;1.80;;;;;;;17.90;61.88;101040.53;6268645;22;20064;-49
2021/08/02 07:34:22;;;;;;;7.40;1.70;;;;;;;17.44;62.54;101051.88;6269032;22;20075;-50
2021/08/02 07:36:48;;;;;;;3.25;1.42;;;;;;;17.78;61.53;101049.09;6269721;22;20004;-50
2021/08/02 07:39:13;;;;;;;4.03;1.52;;;;;;;17.88;61.85;101042.72;6269182;22;20004;-49
2021/08/02 07:41:39;;;;;;;3.90;1.67;;;;;;;17.61;62.94;101051.44;6270212;22;20000;-51
2021/08/02 07:44:05;;;;;;;7.80;1.60;;;;;;;17.67;61.68;101050.25;6267455;22;20004;-50
2021/08/02 07:46:31;;;;;;;3.55;1.55;;;;;;;17.74;61.42;101048.84;6270175;22;20012;-50
2021/08/02 07:48:57;;;;;;;3.47;1.67;;;;;;;18.00;61.92;101053.97;6268041;22;20420;-49
2021/08/02 07:51:23;;;;;;;4.00;1.60;;;;;;;18.73;59.47;101050.03;6268646;22;20010;-49
2021/08/02 07:53:49;;;;;;;3.67;1.60;;;;;;;18.79;58.15;101055.06;6268634;22;20251;-50
2021/08/02 07:56:15;;;;;;;4.30;1.48;;;;;;;18.88;58.03;101057.94;6268671;22;20094;-49
2021/08/02 07:58:40;;;;;;;3.95;1.35;;;;;;;18.29;58.14;101049.25;6265895;22;20039;-49
2021/08/02 08:01:06;;;;;;;3.90;1.40;;;;;;;18.10;59.32;101056.53;6268110;22;20197;-49
2021/08/02 08:03:31;;;;;;;2.78;1.42;;;;;;;18.23;58.39;101057.75;6268847;22;20003;-49
2021/08/02 08:05:57;;;;;;;2.85;1.38;;;;;;;18.27;58.33;101061.50;6268917;22;20081;-50
2021/08/02 08:08:22;;;;;;;4.32;1.30;;;;;;;18.63;57.65;101056.41;6268482;22;20003;-50
2021/08/02 08:10:49;;;;;;;4.97;1.45;;;;;;;18.90;55.62;101053.00;6268973;22;20004;-52
2021/08/02 08:13:15;;;;;;;5.03;1.48;;;;;;;18.89;55.42;101054.09;6268687;22;20007;-49
2021/08/02 08:15:41;;;;;;;6.40;2.03;;;;;;;19.10;55.42;101049.16;6266620;22;20466;-51
2021/08/02 08:18:07;;;;;;;2.70;1.02;;;;;;;18.45;54.53;101049.84;6268505;22;20356;-52
2021/08/02 08:20:33;;;;;;;2.10;1.38;;;;;;;18.68;54.80;101051.72;6268235;22;19999;-51
2021/08/02 08:22:58;;;;;;;2.80;1.48;;;;;;;18.73;54.94;101056.25;6268175;22;20031;-49
2021/08/02 08:25:24;;;;;;;2.47;1.05;;;;;;;18.53;56.01;101045.69;6268067;22;20004;-49
2021/08/02 08:27:50;;;;;;;2.63;1.30;;;;;;;18.28;55.37;101039.50;6241836;22;20396;-51
2021/08/02 08:30:18;;;;;;;5.75;1.30;;;;;;;18.37;55.12;101043.19;6267674;22;20451;-51
2021/08/02 08:32:44;;;;;;;4.05;1.30;;;;;;;18.91;52.60;101050.00;6268869;22;20053;-49
2021/08/02 08:35:11;;;;;;;3.20;0.93;;;;;;;19.36;52.68;101036.72;6267527;22;20008;-49
2021/08/02 08:37:38;;;;;;;3.30;1.10;;;;;;;19.61;52.22;101046.34;6267839;22;20003;-49
2021/08/02 08:40:05;;;;;;;2.97;0.90;;;;;;;20.07;50.81;101048.94;6266047;22;20347;-51
2021/08/02 08:42:32;;;;;;;2.17;1.15;;;;;;;19.44;51.22;101048.81;6268684;22;20008;-51
2021/08/02 08:44:57;;;;;;;2.72;1.20;;;;;;;19.82;50.94;101054.91;6267687;22;20011;-52
2021/08/02 08:47:23;;;;;;;5.75;1.30;;;;;;;19.86;50.23;101062.16;6264793;22;20640;-52
2021/08/02 08:49:48;;;;;;;2.25;1.40;;;;;;;20.02;50.59;101042.81;6240669;22;20033;-50
2021/08/02 08:52:15;;;;;;;4.88;1.33;;;;;;;19.05;51.58;101073.69;6267899;22;20535;-52
2021/08/02 08:54:42;;;;;;;3.58;1.23;;;;;;;18.28;52.64;101068.53;6267912;22;20299;-49
2021/08/02 08:57:12;;;;;;;5.38;1.13;;;;;;;18.30;52.87;101064.41;6267535;22;20018;-49
2021/08/02 08:59:48;;;;;;;5.55;1.58;;;;;;;18.74;53.13;101063.28;6266602;22;20061;-75
2021/08/02 09:02:14;;;;;;;3.97;1.60;;;;;;;19.10;52.06;101060.81;6235473;23;20030;-74
2021/08/02 09:04:40;;;;;;;3.33;1.30;;;;;;;19.35;50.13;101062.28;6238881;23;20004;-75
2021/08/02 09:07:06;;;;;;;5.25;1.40;;;;;;;19.86;49.28;101064.88;6237635;23;20008;-74
2021/08/02 09:09:35;;;;;;;2.78;0.95;;;;;;;20.08;48.25;101056.00;6211514;23;20004;-74
2021/08/02 09:12:18;;;;;;;3.47;1.27;;;;;;;19.06;50.09;101064.44;6237905;23;20603;-74
2021/08/02 09:14:51;;;;;;;2.83;1.10;;;;;;;19.16;50.51;101065.03;6237639;23;20007;-75
2021/08/02 09:17:33;;;;;;;2.42;1.20;;;;;;;19.78;49.26;101060.16;6237010;23;20012;-74
2021/08/02 09:20:01;;;;;;;3.08;1.00;;;;;;;19.70;49.60;101060.84;6205052;22;20047;-46
2021/08/02 09:22:32;;;;;;;6.63;1.38;;;;;;;19.96;49.41;101057.63;6205139;23;20012;-48
2021/08/02 09:25:06;;;;;;;10.00;1.50;;;;;;;19.77;49.62;101068.63;6206290;23;20496;-46
2021/08/02 09:27:33;;;;;;;8.97;1.73;;;;;;;19.68;50.58;101064.97;6206741;23;20252;-46
2021/08/02 09:29:59;;;;;;;2.40;1.33;;;;;;;19.67;51.36;101063.38;6207277;23;20083;-46
2021/08/02 09:32:25;;;;;;;7.32;1.40;;;;;;;19.09;51.97;101071.97;6208645;22;20030;-74
2021/08/02 09:34:50;;;;;;;5.20;1.30;;;;;;;19.46;51.50;101074.59;6213239;23;20418;-73
2021/08/02 09:37:23;;;;;;;6.75;1.27;;;;;;;19.55;50.81;101083.66;6211439;23;20004;-73
2021/08/02 09:39:49;;;;;;;2.08;0.70;;;;;;;19.53;47.66;101079.63;6210179;23;20105;-73
2021/08/02 09:42:15;;;;;;;1.60;0.80;;;;;;;20.09;46.25;101071.19;6211485;23;20436;-73
2021/08/02 09:44:40;;;;;;;3.15;1.20;;;;;;;19.75;47.45;101066.19;6211032;23;20352;-73
2021/08/02 09:47:09;;;;;;;4.80;1.40;;;;;;;20.43;46.60;101068.06;6237173;22;20008;-82
2021/08/02 09:49:47;;;;;;;12.20;1.40;;;;;;;19.99;47.10;101065.19;6210560;23;20012;-83
2021/08/02 09:52:13;;;;;;;2.42;1.00;;;;;;;20.35;46.83;101054.34;6210830;23;20004;-84
2021/08/02 09:54:40;;;;;;;3.08;1.05;;;;;;;20.25;45.58;101068.16;6238628;23;20459;-83
2021/08/02 09:57:06;;;;;;;3.22;1.45;;;;;;;19.88;46.12;101068.09;6212203;23;20011;-83
2021/08/02 09:59:34;;;;;;;3.00;1.13;;;;;;;20.76;45.66;101065.94;6211167;23;20087;-84
2021/08/02 10:02:00;;;;;;;1.98;0.85;;;;;;;21.52;44.81;101062.41;6211331;23;20019;-83
2021/08/02 10:04:30;;;;;;;4.88;1.00;;;;;;;21.58;44.15;101061.19;6210586;23;20128;-83
2021/08/02 10:06:55;;;;;;;1.35;1.00;;;;;;;21.39;42.66;101064.94;6212551;23;20285;-83
2021/08/02 10:09:21;;;;;;;2.75;0.93;;;;;;;20.68;44.44;101060.44;6211867;23;20441;-83
2021/08/02 10:11:47;;;;;;;2.47;0.95;;;;;;;20.75;45.17;101072.50;6238234;23;20036;-84
2021/08/02 10:14:14;;;;;;;3.80;1.23;;;;;;;20.21;46.14;101076.94;6211800;23;20035;-82
2021/08/02 10:16:43;;;;;;;6.45;1.33;;;;;;;20.14;46.31;101073.03;6211818;23;20008;-84
2021/08/02 10:19:11;;;;;;;5.18;1.25;;;;;;;19.97;46.18;101089.97;6212610;23;19996;-83
2021/08/02 10:21:40;;;;;;;4.10;1.17;;;;;;;19.39;46.86;101076.06;6237469;23;20079;-84
2021/08/02 10:24:09;;;;;;;2.13;1.45;;;;;;;19.60;47.30;101085.50;6212521;23;20054;-83
2021/08/02 10:26:35;;;;;;;3.03;1.15;;;;;;;19.37;47.70;101098.09;6211154;23;20371;-83
2021/08/02 10:29:04;;;;;;;4.68;1.08;;;;;;;19.46;48.30;101090.88;6211023;23;20087;-83
2021/08/02 10:31:55;;;;;;;2.83;0.93;;;;;;;19.19;49.85;101096.22;6211388;23;20004;-84
2021/08/02 10:34:23;;;;;;;5.25;0.95;;;;;;;19.17;49.57;101103.88;6210122;23;20083;-84
2021/08/02 10:37:05;;;;;;;3.45;0.93;;;;;;;18.82;48.68;101102.53;6238980;22;20347;-83
2021/08/02 10:39:35;;;;;;;1.90;0.70;;;;;;;18.71;49.40;101108.13;6205349;23;20004;-84
2021/08/02 10:42:18;;;;;;;2.22;1.00;;;;;;;18.84;50.55;101105.75;6207399;23;20042;-84
2021/08/02 10:44:54;;;;;;;3.17;1.35;;;;;;;18.89;50.47;101103.78;6206569;23;20020;-85
2021/08/02 10:47:20;;;;;;;4.18;1.10;;;;;;;18.66;50.81;101112.78;6228044;23;20061;-86
2021/08/02 10:49:53;;;;;;;2.53;1.10;;;;;;;18.52;51.62;101104.56;6235525;22;20000;-87
2021/08/02 10:52:29;;;;;;;3.83;1.23;;;;;;;18.75;51.49;101113.75;6233046;23;20007;-86
2021/08/02 10:54:59;;;;;;;1.63;0.88;;;;;;;18.70;51.54;101116.56;6231735;23;20004;-86
2021/08/02 10:57:25;;;;;;;2.65;1.20;;;;;;;18.92;50.72;101118.69;6233591;22;20003;-86
2021/08/02 10:59:51;;;;;;;2.88;1.10;;;;;;;19.06;50.27;101122.25;6234430;23;20000;-86
2021/08/02 11:02:18;;;;;;;4.18;1.10;;;;;;;19.48;48.73;101115.03;6234070;23;20011;-85
2021/08/02 11:04:53;;;;;;;3.72;1.20;;;;;;;19.40;48.24;101113.03;6234889;23;20008;-86
2021/08/02 11:07:20;;;;;;;3.55;1.15;;;;;;;19.62;47.24;101115.91;6234358;22;20061;-86
2021/08/02 11:09:47;;;;;;;1.98;0.90;;;;;;;19.85;47.01;101119.56;6232629;23;20004;-86
2021/08/02 11:12:13;;;;;;;1.25;0.90;;;;;;;19.88;47.26;101121.66;6237179;22;20008;-86
2021/08/02 11:14:50;;;;;;;4.47;1.35;;;;;;;20.10;46.68;101127.22;6252882;23;20004;-85
2021/08/02 11:17:17;;;;;;;3.00;0.77;;;;;;;19.88;47.41;101118.94;6239056;22;20007;-86
2021/08/02 11:19:45;;;;;;;8.98;1.20;;;;;;;19.82;46.79;101126.41;6236547;23;20035;-86
2021/08/02 11:22:12;;;;;;;3.40;1.02;;;;;;;19.43;47.64;101129.53;6235384;23;20008;-85
2021/08/02 11:24:51;;;;;;;3.45;0.93;;;;;;;19.17;49.24;101139.19;6235960;23;20038;-85
2021/08/02 11:27:19;;;;;;;2.10;0.90;;;;;;;19.19;49.18;101131.53;6238053;22;20217;-86
2021/08/02 11:29:53;;;;;;;6.13;1.10;;;;;;;19.16;49.53;101140.28;6234806;23;20007;-86